Time;durP1;ratioP1;P1;durP2;ratioP2;P2;SDS_P1;SDS_P2;PMS_P1;PMS_P2;Temp;Humidity;BMP_temperature;BMP_pressure;BME280_temperature;BME280_humidity;BME280_pressure;Samples;Min_cycle;Max_cycle;Signal;HPM_P1;HPM_P2
2022/12/17 13:06:57;;;;;;;;;;;;;;;25.35;41.09;94627.38;4967547;28;7261;-57
2022/12/17 13:09:26;;;;;;;;;;;;;;;25.34;41.57;94628.63;4971430;28;7085;-56
2022/12/17 13:12:00;;;;;;;;;;;;;;;25.34;41.48;94636.88;4971690;28;9689;-56
2022/12/17 13:14:42;;;;;;;;;;;;;;;25.33;41.27;94633.41;4957597;28;7455;-56
2022/12/17 13:17:37;;;;;;;;;;;;;;;25.35;40.68;94632.91;4951500;28;7591;-56
2022/12/17 13:20:48;;;;;;;;;;;;;;;25.33;41.21;94629.91;4956744;28;7029;-56
2022/12/17 13:23:38;;;;;;;;;;;;;;;25.33;41.49;94627.16;4960960;28;7220;-56
2022/12/17 13:26:30;;;;;;;;;;;;;;;25.35;41.66;94630.16;4956505;28;10099;-56
2022/12/17 13:29:33;;;;;;;;;;;;;;;25.34;41.00;94636.88;4973958;28;7402;-56
2022/12/17 13:32:35;;;;;;;;;;;;;;;25.38;41.59;94637.41;4966859;28;7356;-56
2022/12/17 13:35:26;;;;;;;;;;;;;;;25.40;41.72;94637.66;4891378;29;7999;-57
2022/12/17 13:38:20;;;;;;;;;;;;;;;25.41;41.40;94637.13;4902747;29;8070;-56
2022/12/17 13:41:05;;;;;;;;;;;;;;;25.43;41.34;94644.91;4893608;29;8064;-56
2022/12/17 13:44:14;;;;;;;;;;;;;;;25.43;40.94;94644.91;4901725;29;7389;-57
2022/12/17 13:46:52;;;;;;;;;;;;;;;25.44;41.11;94649.19;4838866;29;8971;-56
2022/12/17 13:49:51;;;;;;;;;;;;;;;25.42;41.19;94649.66;4857068;29;8022;-56
2022/12/17 13:52:23;;;;;;;;;;;;;;;25.42;41.63;94652.41;4818798;29;8165;-56
2022/12/17 13:55:30;;;;;;;;;;;;;;;25.43;41.69;94662.19;4838966;29;7298;-56
2022/12/17 13:58:21;;;;;;;;;;;;;;;25.43;41.37;94662.19;4832596;29;8165;-57
2022/12/17 14:01:10;;;;;;;;;;;;;;;25.45;41.10;94658.19;4833487;29;6832;-57
2022/12/17 14:04:18;;;;;;;;;;;;;;;25.42;40.83;94668.94;4832261;29;8104;-56
2022/12/17 14:06:47;;;;;;;;;;;;;;;25.42;41.21;94671.69;4807184;29;8340;-56
2022/12/17 14:09:19;;;;;;;;;;;;;;;25.42;40.64;94673.72;4802294;29;7417;-56
2022/12/17 14:14:51;;;;;;;;;;;;;;;25.42;41.46;94670.97;4802781;29;7241;-56
2022/12/17 14:17:35;;;;;;;;;;;;;;;25.44;41.17;94668.47;4803573;29;9352;-56
2022/12/17 14:20:20;;;;;;;;;;;;;;;25.46;41.37;94676.97;4798920;29;8127;-57
2022/12/17 14:23:01;;;;;;;;;;;;;;;25.47;41.42;94680.47;4850859;29;9332;-59
2022/12/17 14:26:20;;;;;;;;;;;;;;;25.48;41.21;94674.47;4857906;29;7043;-57
2022/12/17 14:28:53;;;;;;;;;;;;;;;25.46;41.44;94676.97;4821178;29;7101;-56
2022/12/17 14:31:52;;;;;;;;;;;;;;;25.47;40.94;94672.94;4831031;29;7534;-56
2022/12/17 14:34:21;;;;;;;;;;;;;;;25.47;41.47;94666.72;4793502;29;6961;-56
2022/12/17 14:36:58;;;;;;;;;;;;;;;25.50;41.17;94657.44;4786454;29;7267;-57
2022/12/17 14:39:35;;;;;;;;;;;;;;;25.50;40.42;94665.69;4799241;29;8286;-56
2022/12/17 14:42:25;;;;;;;;;;;;;;;25.54;40.92;94671.69;4845269;29;8182;-59
2022/12/17 14:45:06;;;;;;;;;;;;;;;25.52;40.80;94669.44;4815209;29;9245;-59
2022/12/17 14:47:59;;;;;;;;;;;;;;;25.50;40.43;94682.97;4839199;29;8995;-56
2022/12/17 14:50:33;;;;;;;;;;;;;;;25.50;41.26;94685.72;4823457;29;7128;-57
2022/12/17 14:53:20;;;;;;;;;;;;;;;25.48;41.20;94687.47;4847041;29;6891;-56
2022/12/17 14:55:56;;;;;;;;;;;;;;;25.48;40.42;94690.97;4834383;29;7663;-58
2022/12/17 14:58:25;;;;;;;;;;;;;;;25.50;41.15;94696.75;4821044;29;7060;-57
2022/12/17 15:01:03;;;;;;;;;;;;;;;25.51;40.06;94695.50;4823940;29;7533;-57
2022/12/17 15:03:49;;;;;;;;;;;;;;;25.55;41.35;94703.50;4823481;29;7702;-58
2022/12/17 15:06:19;;;;;;;;;;;;;;;25.52;40.93;94694.22;4866377;29;7220;-56
2022/12/17 15:08:51;;;;;;;;;;;;;;;25.49;41.00;94700.72;4861271;29;7357;-56
2022/12/17 15:11:20;;;;;;;;;;;;;;;25.46;40.75;94699.00;4928891;28;7204;-56
2022/12/17 15:13:52;;;;;;;;;;;;;;;25.47;40.67;94700.47;4967683;28;7476;-56
2022/12/17 15:16:36;;;;;;;;;;;;;;;25.48;40.50;94707.50;4946322;28;8940;-56
2022/12/17 15:19:12;;;;;;;;;;;;;;;25.45;40.53;94719.53;4946619;28;7094;-56
2022/12/17 15:21:51;;;;;;;;;;;;;;;25.42;40.94;94724.03;4972106;28;7295;-55
2022/12/17 15:24:32;;;;;;;;;;;;;;;25.39;40.96;94727.00;4960850;28;7118;-56
2022/12/17 15:27:04;;;;;;;;;;;;;;;25.38;41.23;94720.00;4940005;28;8234;-57
2022/12/17 15:29:30;;;;;;;;;;;;;;;25.38;40.97;94717.25;4941801;28;7281;-57
2022/12/17 15:31:57;;;;;;;;;;;;;;;25.36;41.54;94719.75;4965392;28;8973;-56
2022/12/17 15:34:50;;;;;;;;;;;;;;;25.29;41.48;94714.75;4952879;28;7292;-57
2022/12/17 15:37:19;;;;;;;;;;;;;;;25.29;41.47;94718.25;4919686;29;7627;-57
2022/12/17 15:39:46;;;;;;;;;;;;;;;25.34;41.49;94712.00;4918592;29;7058;-57
2022/12/17 15:45:23;;;;;;;;;;;;;;;25.33;41.11;94718.00;4926846;29;7256;-55
2022/12/17 15:47:59;;;;;;;;;;;;;;;25.32;41.63;94713.75;4910137;29;8494;-55
2022/12/17 15:50:43;;;;;;;;;;;;;;;25.33;41.02;94715.25;4924567;29;9697;-55
2022/12/17 15:53:09;;;;;;;;;;;;;;;25.32;41.17;94711.75;4909999;29;7055;-54
2022/12/17 15:55:40;;;;;;;;;;;;;;;25.33;41.40;94712.50;4914156;29;9367;-55
2022/12/17 15:58:23;;;;;;;;;;;;;;;25.31;41.50;94715.75;4921246;29;7235;-55
2022/12/17 16:01:07;;;;;;;;;;;;;;;25.28;41.40;94707.72;4923246;29;9175;-54
2022/12/17 16:03:45;;;;;;;;;;;;;;;25.28;41.59;94716.75;4911820;29;7228;-55
2022/12/17 16:06:12;;;;;;;;;;;;;;;25.28;41.91;94710.50;4913158;29;9496;-56
2022/12/17 16:08:38;;;;;;;;;;;;;;;25.28;42.05;94716.00;4920660;29;8607;-56
2022/12/17 16:11:06;;;;;;;;;;;;;;;25.28;41.30;94713.25;4926590;29;7267;-57
2022/12/17 16:13:43;;;;;;;;;;;;;;;25.29;41.77;94707.22;4938903;28;7233;-56
2022/12/17 16:16:20;;;;;;;;;;;;;;;25.28;41.75;94702.22;4954614;28;9529;-56
2022/12/17 16:18:48;;;;;;;;;;;;;;;25.27;41.98;94700.75;4970468;28;7038;-56
2022/12/17 16:21:44;;;;;;;;;;;;;;;25.29;41.71;94714.75;4973425;28;10448;-58
2022/12/17 16:24:11;;;;;;;;;;;;;;;25.28;41.88;94710.50;4900321;29;8985;-56
2022/12/17 16:26:51;;;;;;;;;;;;;;;25.28;41.73;94711.25;4896723;29;7029;-56
2022/12/17 16:29:29;;;;;;;;;;;;;;;25.27;41.05;94720.00;4904027;29;8196;-55
2022/12/17 16:32:26;;;;;;;;;;;;;;;25.31;40.89;94731.53;4899436;29;7030;-56
2022/12/17 16:35:03;;;;;;;;;;;;;;;25.29;41.10;94721.00;4890269;29;7266;-56
2022/12/17 16:37:45;;;;;;;;;;;;;;;25.30;41.34;94730.00;4912446;29;8436;-56
2022/12/17 16:40:11;;;;;;;;;;;;;;;25.27;41.28;94720.75;4881673;29;7265;-57
2022/12/17 16:42:40;;;;;;;;;;;;;;;25.29;41.10;94725.75;4888487;29;7038;-56
2022/12/17 16:45:07;;;;;;;;;;;;;;;25.28;40.91;94716.75;4885664;29;7506;-56
2022/12/17 16:47:39;;;;;;;;;;;;;;;25.32;40.94;94716.50;4884112;29;7279;-56
2022/12/17 16:50:05;;;;;;;;;;;;;;;25.33;41.49;94723.50;4881157;29;7289;-57
2022/12/17 16:52:32;;;;;;;;;;;;;;;25.31;41.38;94715.75;4886026;29;7359;-57
2022/12/17 16:54:58;;;;;;;;;;;;;;;25.32;40.74;94727.50;4867679;29;8523;-57
2022/12/17 16:57:27;;;;;;;;;;;;;;;25.33;40.93;94727.03;4876787;29;6840;-56
2022/12/17 17:00:03;;;;;;;;;;;;;;;25.33;41.21;94727.03;4875598;29;8446;-57
2022/12/17 17:02:31;;;;;;;;;;;;;;;25.34;40.81;94733.25;4910225;29;9498;-56
2022/12/17 17:04:57;;;;;;;;;;;;;;;25.37;40.32;94737.78;4903502;29;7033;-56
2022/12/17 17:07:23;;;;;;;;;;;;;;;25.34;41.10;94736.00;4910233;29;7037;-56
2022/12/17 17:09:53;;;;;;;;;;;;;;;25.32;40.61;94738.50;4899745;29;7001;-55
2022/12/17 17:12:25;;;;;;;;;;;;;;;25.30;41.20;94744.53;4953695;28;9310;-56
2022/12/17 17:14:53;;;;;;;;;;;;;;;25.30;41.20;94741.03;4952011;28;9010;-56
2022/12/17 17:17:21;;;;;;;;;;;;;;;25.33;40.76;94742.78;4947899;28;7140;-56
2022/12/17 17:19:51;;;;;;;;;;;;;;;25.39;41.29;94746.28;4971813;28;8717;-56
2022/12/17 17:22:19;;;;;;;;;;;;;;;25.32;40.87;94749.53;4953743;28;7168;-55
2022/12/17 17:24:47;;;;;;;;;;;;;;;25.29;41.89;94750.53;4969666;28;7032;-56
2022/12/17 17:27:13;;;;;;;;;;;;;;;25.29;41.21;94753.31;4969249;28;7451;-56
2022/12/17 17:30:12;;;;;;;;;;;;;;;25.28;41.69;94754.53;4969587;28;9527;-56
2022/12/17 17:32:43;;;;;;;;;;;;;;;25.32;40.89;94757.78;4887900;29;7227;-56
2022/12/17 17:35:40;;;;;;;;;;;;;;;25.35;41.48;94754.03;4887502;29;7118;-56
2022/12/17 17:38:07;;;;;;;;;;;;;;;25.36;41.67;94755.53;4817135;29;7253;-56
2022/12/17 17:41:05;;;;;;;;;;;;;;;25.36;41.01;94763.78;4824357;29;7271;-56
2022/12/17 17:43:41;;;;;;;;;;;;;;;25.38;41.58;94761.31;4781239;30;9025;-56
2022/12/17 17:46:15;;;;;;;;;;;;;;;25.36;41.33;94761.03;4787145;29;7077;-56
2022/12/17 17:49:17;;;;;;;;;;;;;;;25.30;41.55;94761.06;4770733;30;8947;-56
2022/12/17 17:51:44;;;;;;;;;;;;;;;25.30;41.93;94763.03;4777411;29;9077;-57
2022/12/17 17:54:28;;;;;;;;;;;;;;;25.29;42.48;94765.03;4786718;30;7702;-57
2022/12/17 17:56:57;;;;;;;;;;;;;;;25.32;41.75;94768.81;4781487;29;7202;-57
2022/12/17 17:59:23;;;;;;;;;;;;;;;25.32;42.33;94766.03;4767083;30;7134;-57
2022/12/17 18:01:50;;;;;;;;;;;;;;;25.37;41.70;94766.06;4777630;29;7211;-58
2022/12/17 18:04:33;;;;;;;;;;;;;;;25.39;42.02;94765.56;4764633;29;9944;-58
2022/12/17 18:06:59;;;;;;;;;;;;;;;25.40;41.39;94762.28;4781464;29;7275;-57
2022/12/17 18:09:25;;;;;;;;;;;;;;;25.32;41.97;94757.78;4822847;29;7273;-58
2022/12/17 18:11:51;;;;;;;;;;;;;;;25.34;42.22;94767.06;4824129;29;7185;-57
2022/12/17 18:14:19;;;;;;;;;;;;;;;25.33;42.23;94762.81;4853386;29;7157;-56
2022/12/17 18:17:09;;;;;;;;;;;;;;;25.35;41.78;94765.06;4882133;29;8913;-57
2022/12/17 18:19:49;;;;;;;;;;;;;;;25.39;41.73;94768.31;4905023;28;7324;-56
2022/12/17 18:22:15;;;;;;;;;;;;;;;25.40;41.91;94778.81;4956700;28;7046;-57
2022/12/17 18:24:42;;;;;;;;;;;;;;;25.41;41.74;94779.56;4976941;28;9221;-56
2022/12/17 18:27:11;;;;;;;;;;;;;;;25.41;41.87;94780.34;4960736;28;6872;-57
2022/12/17 18:29:39;;;;;;;;;;;;;;;25.42;42.46;94783.88;4974228;28;9528;-56
2022/12/17 18:32:05;;;;;;;;;;;;;;;25.40;41.81;94787.06;4955815;28;7826;-56
2022/12/17 18:34:34;;;;;;;;;;;;;;;25.40;42.43;94786.34;4957975;28;7171;-55
2022/12/17 18:37:10;;;;;;;;;;;;;;;25.38;42.44;94783.34;4951684;28;7243;-56
2022/12/17 18:40:00;;;;;;;;;;;;;;;25.39;42.73;94787.59;4974345;28;7476;-56
2022/12/17 18:45:30;;;;;;;;;;;;;;;25.39;42.19;94785.59;4975973;28;7243;-56
2022/12/17 18:47:59;;;;;;;;;;;;;;;25.39;42.54;94776.56;4973309;28;7338;-55
2022/12/17 18:50:33;;;;;;;;;;;;;;;25.39;42.02;94779.31;4971034;28;7296;-56
2022/12/17 18:52:59;;;;;;;;;;;;;;;25.37;41.80;94781.84;4957249;28;8812;-58
2022/12/17 18:55:29;;;;;;;;;;;;;;;25.38;42.47;94784.06;4946837;28;7098;-56
2022/12/17 18:58:03;;;;;;;;;;;;;;;25.42;41.87;94783.88;4974217;28;7026;-57
2022/12/17 19:00:30;;;;;;;;;;;;;;;25.47;42.07;94785.84;4974669;28;7809;-57
2022/12/17 19:02:56;;;;;;;;;;;;;;;25.50;42.21;94792.38;4965115;28;9521;-57
2022/12/17 19:05:24;;;;;;;;;;;;;;;25.54;42.27;94796.38;4958229;28;7039;-54
2022/12/17 19:07:50;;;;;;;;;;;;;;;25.56;41.86;94796.63;4954987;28;8678;-55
2022/12/17 19:10:16;;;;;;;;;;;;;;;25.58;41.68;94799.63;4957442;28;9468;-54
2022/12/17 19:12:49;;;;;;;;;;;;;;;25.59;42.45;94803.91;4978437;28;7625;-54
2022/12/17 19:15:24;;;;;;;;;;;;;;;25.60;41.81;94801.91;4956301;28;9275;-55
2022/12/17 19:17:55;;;;;;;;;;;;;;;25.63;42.61;94807.16;4956036;28;7036;-55
2022/12/17 19:20:22;;;;;;;;;;;;;;;25.64;41.45;94803.16;4973387;28;7294;-55
2022/12/17 19:23:02;;;;;;;;;;;;;;;25.67;41.70;94799.38;4951617;28;7216;-55
2022/12/17 19:25:39;;;;;;;;;;;;;;;25.71;41.53;94807.41;4972780;28;7376;-56
2022/12/17 19:28:19;;;;;;;;;;;;;;;25.69;41.52;94804.38;4974712;28;7066;-56
2022/12/17 19:30:45;;;;;;;;;;;;;;;25.70;41.52;94809.41;4945051;28;7753;-56
2022/12/17 19:33:16;;;;;;;;;;;;;;;25.70;41.25;94816.94;4962940;28;9359;-57
2022/12/17 19:36:17;;;;;;;;;;;;;;;25.71;42.27;94819.16;4972550;28;7036;-56
2022/12/17 19:39:13;;;;;;;;;;;;;;;25.72;41.01;94822.69;4888683;29;7063;-57
2022/12/17 19:41:42;;;;;;;;;;;;;;;25.70;42.07;94812.16;4889770;29;7261;-56
2022/12/17 19:44:29;;;;;;;;;;;;;;;25.70;41.91;94812.16;4894242;29;7177;-57
2022/12/17 19:46:57;;;;;;;;;;;;;;;25.70;41.60;94812.16;4886904;29;7082;-56
2022/12/17 19:49:34;;;;;;;;;;;;;;;25.71;41.53;94813.66;4881067;29;7131;-56
2022/12/17 19:52:00;;;;;;;;;;;;;;;25.72;41.42;94822.69;4893650;29;9415;-56
2022/12/17 19:54:25;;;;;;;;;;;;;;;25.73;41.62;94829.72;4871108;29;7637;-57
2022/12/17 19:56:51;;;;;;;;;;;;;;;25.72;41.32;94828.94;4889364;29;8282;-57
2022/12/17 19:59:28;;;;;;;;;;;;;;;25.71;41.58;94830.19;4877049;29;9661;-57
2022/12/17 20:01:56;;;;;;;;;;;;;;;25.72;41.80;94836.47;4875806;29;7097;-57
2022/12/17 20:04:22;;;;;;;;;;;;;;;25.72;41.74;94837.22;4879740;29;7283;-56
2022/12/17 20:06:50;;;;;;;;;;;;;;;25.70;41.45;94836.97;4876231;29;7029;-56
2022/12/17 20:09:16;;;;;;;;;;;;;;;25.70;41.14;94833.44;4873085;29;7505;-56
2022/12/17 20:11:47;;;;;;;;;;;;;;;25.68;41.23;94844.97;4872852;29;8932;-56
2022/12/17 20:14:19;;;;;;;;;;;;;;;25.63;41.79;94851.22;4902265;28;7350;-57
2022/12/17 20:17:00;;;;;;;;;;;;;;;25.59;41.62;94859.00;4957050;28;7524;-57
2022/12/17 20:19:36;;;;;;;;;;;;;;;25.57;41.75;94867.00;4944358;28;7263;-56
2022/12/17 20:22:12;;;;;;;;;;;;;;;25.56;42.40;94868.25;4954147;28;7113;-57
2022/12/17 20:24:48;;;;;;;;;;;;;;;25.56;42.18;94868.25;4956479;28;7808;-56
2022/12/17 20:27:15;;;;;;;;;;;;;;;25.55;41.55;94861.25;4954289;28;7937;-56
2022/12/17 20:29:41;;;;;;;;;;;;;;;25.54;41.91;94858.97;4953144;28;7066;-57
2022/12/17 20:32:08;;;;;;;;;;;;;;;25.51;42.29;94862.75;4957080;28;9109;-58
2022/12/17 20:34:41;;;;;;;;;;;;;;;25.53;42.45;94858.25;4969779;28;7239;-56
2022/12/17 20:37:09;;;;;;;;;;;;;;;25.51;42.47;94851.72;4957524;28;7161;-58
2022/12/17 20:39:46;;;;;;;;;;;;;;;25.50;42.53;94861.22;4955119;28;7239;-56
2022/12/17 20:42:16;;;;;;;;;;;;;;;25.50;42.70;94863.97;4956246;28;7322;-57
2022/12/17 20:44:45;;;;;;;;;;;;;;;25.53;42.27;94858.25;4970551;28;7105;-57
2022/12/17 20:47:11;;;;;;;;;;;;;;;25.55;41.82;94864.00;4967514;28;7642;-57
2022/12/17 20:49:36;;;;;;;;;;;;;;;25.58;42.40;94867.78;4957584;28;7371;-57
2022/12/17 20:52:07;;;;;;;;;;;;;;;25.62;42.18;94874.50;4953530;28;7398;-56
2022/12/17 20:54:34;;;;;;;;;;;;;;;25.61;41.81;94884.03;4947494;28;7047;-57
2022/12/17 20:57:16;;;;;;;;;;;;;;;25.59;41.83;94872.78;4969170;28;7241;-57
2022/12/17 20:59:43;;;;;;;;;;;;;;;25.63;41.88;94884.28;4970110;28;7267;-56
2022/12/17 21:02:10;;;;;;;;;;;;;;;25.64;41.63;94880.31;4946581;28;9425;-57
2022/12/17 21:04:38;;;;;;;;;;;;;;;25.64;41.73;94874.78;4949898;28;7127;-57
2022/12/17 21:07:06;;;;;;;;;;;;;;;25.67;41.88;94871.00;4942563;28;9004;-57
2022/12/17 21:09:32;;;;;;;;;;;;;;;25.65;41.77;94876.28;4967163;28;7376;-57
2022/12/17 21:11:58;;;;;;;;;;;;;;;25.61;41.83;94870.25;4951208;28;7311;-57
2022/12/17 21:14:26;;;;;;;;;;;;;;;25.57;41.28;94864.25;4947839;28;7113;-56
2022/12/17 21:16:52;;;;;;;;;;;;;;;25.56;41.53;94865.50;4957676;28;7167;-57
2022/12/17 21:19:18;;;;;;;;;;;;;;;25.55;41.38;94874.25;4950026;28;8430;-57
2022/12/17 21:21:47;;;;;;;;;;;;;;;25.51;41.04;94876.50;4969861;28;8668;-57
2022/12/17 21:24:13;;;;;;;;;;;;;;;25.50;41.90;94875.75;4966644;28;8259;-57
2022/12/17 21:26:42;;;;;;;;;;;;;;;25.49;41.96;94870.75;4949342;28;8109;-57
2022/12/17 21:29:10;;;;;;;;;;;;;;;25.49;41.26;94879.03;4969260;28;7276;-56
2022/12/17 21:31:50;;;;;;;;;;;;;;;25.48;41.52;94886.53;4961111;28;7046;-56
2022/12/17 21:34:20;;;;;;;;;;;;;;;25.48;42.30;94889.28;4966120;28;7058;-57
2022/12/17 21:36:48;;;;;;;;;;;;;;;25.46;42.22;94891.78;4943150;29;9446;-57
2022/12/17 21:39:18;;;;;;;;;;;;;;;25.44;41.43;94880.50;4964331;28;6871;-57
2022/12/17 21:43:00;;;;;;;;;;;;;;;25.44;42.10;94883.25;4968581;28;7314;-56
2022/12/17 21:44:31;;;;;;;;;;;;;;;25.42;41.42;94885.75;4968570;28;9029;-56
2022/12/17 21:47:02;;;;;;;;;;;;;;;25.41;41.61;94878.72;4970119;28;8087;-56
2022/12/17 21:50:04;;;;;;;;;;;;;;;25.42;42.04;94881.00;4952886;28;8434;-57
2022/12/17 21:52:33;;;;;;;;;;;;;;;25.41;42.28;94879.47;4967947;28;7672;-57
2022/12/17 21:55:30;;;;;;;;;;;;;;;25.42;42.09;94892.00;4953094;28;10652;-57
2022/12/17 21:57:57;;;;;;;;;;;;;;;25.40;41.96;94893.75;4864747;29;7171;-57
2022/12/17 22:00:34;;;;;;;;;;;;;;;25.38;41.62;94899.00;4874445;29;7901;-56
2022/12/17 22:03:11;;;;;;;;;;;;;;;25.37;41.47;94897.47;4868520;29;7040;-57
2022/12/17 22:05:39;;;;;;;;;;;;;;;25.38;41.94;94890.75;4869635;29;7280;-56
2022/12/17 22:08:05;;;;;;;;;;;;;;;25.37;41.77;94889.22;4872731;29;7055;-57
2022/12/17 22:10:34;;;;;;;;;;;;;;;25.36;41.46;94882.19;4869566;29;7339;-56
2022/12/17 22:15:54;;;;;;;;;;;;;;;25.37;41.29;94880.97;4870847;29;8511;-56
2022/12/17 22:18:34;;;;;;;;;;;;;;;25.35;42.12;94884.22;4854523;29;7637;-57
2022/12/17 22:21:12;;;;;;;;;;;;;;;25.36;41.17;94893.97;4862399;29;7045;-57
2022/12/17 22:23:59;;;;;;;;;;;;;;;25.35;41.25;94891.72;4854659;29;7083;-57
2022/12/17 22:26:24;;;;;;;;;;;;;;;25.36;41.30;94898.72;4875482;29;7573;-57
2022/12/17 22:28:52;;;;;;;;;;;;;;;25.36;41.07;94893.22;4862332;29;9286;-56
2022/12/17 22:34:06;;;;;;;;;;;;;;;25.36;41.39;94890.47;4908766;28;7317;-57
2022/12/17 22:36:35;;;;;;;;;;;;;;;25.36;42.10;94896.72;4960164;28;6924;-57
2022/12/17 22:39:26;;;;;;;;;;;;;;;25.36;41.38;94898.72;4964690;28;7245;-57
2022/12/17 22:45:20;;;;;;;;;;;;;;;25.33;41.51;94874.94;4928807;29;7257;-56
2022/12/17 22:47:55;;;;;;;;;;;;;;;25.35;41.36;94880.72;4926330;29;7182;-57
2022/12/17 22:50:23;;;;;;;;;;;;;;;25.34;41.63;94868.19;4925629;29;7039;-57
2022/12/17 22:52:49;;;;;;;;;;;;;;;25.34;41.20;94873.69;4908973;29;8991;-57
2022/12/17 22:55:17;;;;;;;;;;;;;;;25.34;41.54;94868.94;4899139;29;7364;-57
2022/12/17 22:57:52;;;;;;;;;;;;;;;25.33;41.02;94861.19;4912526;29;7330;-56
2022/12/17 23:00:53;;;;;;;;;;;;;;;25.35;40.78;94858.69;4912073;29;7037;-57
2022/12/17 23:03:35;;;;;;;;;;;;;;;25.34;40.88;94863.44;4859746;29;6944;-57
2022/12/17 23:06:20;;;;;;;;;;;;;;;25.35;40.94;94864.94;4867107;29;7045;-57
2022/12/17 23:08:46;;;;;;;;;;;;;;;25.34;40.64;94868.94;4856604;29;7345;-57
2022/12/17 23:11:21;;;;;;;;;;;;;;;25.36;40.85;94873.94;4856346;29;7331;-57
2022/12/17 23:14:18;;;;;;;;;;;;;;;25.36;41.57;94877.44;4859780;29;7070;-56
2022/12/17 23:16:57;;;;;;;;;;;;;;;25.35;41.17;94875.19;4796664;29;7176;-56
2022/12/17 23:19:51;;;;;;;;;;;;;;;25.35;40.93;94886.22;4803477;29;8866;-57
2022/12/17 23:22:34;;;;;;;;;;;;;;;25.35;41.03;94894.47;4752175;30;7290;-57
2022/12/17 23:25:02;;;;;;;;;;;;;;;25.35;40.59;94897.22;4740565;30;7249;-57
2022/12/17 23:27:44;;;;;;;;;;;;;;;25.33;40.79;94900.50;4756250;30;7227;-57
2022/12/17 23:30:28;;;;;;;;;;;;;;;25.36;40.52;94898.72;4746400;30;9167;-57
2022/12/17 23:32:56;;;;;;;;;;;;;;;25.35;41.31;94902.72;4753071;30;7001;-56
2022/12/17 23:35:39;;;;;;;;;;;;;;;25.34;41.26;94898.47;4761211;30;7067;-57
2022/12/17 23:38:38;;;;;;;;;;;;;;;25.32;41.38;94887.97;4796158;29;7272;-56
2022/12/17 23:41:06;;;;;;;;;;;;;;;25.32;41.43;94889.94;4759646;29;8965;-57
2022/12/17 23:43:49;;;;;;;;;;;;;;;25.31;41.46;94888.47;4785583;29;9155;-57
2022/12/17 23:46:26;;;;;;;;;;;;;;;25.31;41.21;94896.72;4766635;30;7650;-59
2022/12/17 23:49:21;;;;;;;;;;;;;;;25.32;41.50;94898.97;4765996;29;7045;-56
2022/12/17 23:52:04;;;;;;;;;;;;;;;25.31;41.63;94910.50;4768366;30;7298;-57
2022/12/17 23:54:31;;;;;;;;;;;;;;;25.31;41.11;94919.50;4819967;29;7123;-56
2022/12/17 23:57:18;;;;;;;;;;;;;;;25.32;40.70;94925.75;4810560;29;6938;-56
